sensor_id;sensor_type;location;lat;lon;timestamp;P1;durP1;ratioP1;P2;durP2;ratioP2
63664;SDS011;49820;33.966;73.390;2023-03-12T02:11:57;26.80;;;13.75;;
63664;SDS011;49820;33.966;73.390;2023-03-12T02:38:34;20.05;;;12.13;;
63664;SDS011;49820;33.966;73.390;2023-03-12T02:42:32;15.07;;;10.73;;
63664;SDS011;49820;33.966;73.390;2023-03-12T02:47:41;15.85;;;10.70;;
63664;SDS011;49820;33.966;73.390;2023-03-12T02:50:11;15.48;;;11.55;;
63664;SDS011;49820;33.966;73.390;2023-03-12T02:52:40;19.27;;;10.73;;
63664;SDS011;49820;33.966;73.390;2023-03-12T02:55:09;14.57;;;9.43;;
63664;SDS011;49820;33.966;73.390;2023-03-12T02:57:39;14.55;;;9.43;;
63664;SDS011;49820;33.966;73.390;2023-03-12T03:00:13;14.68;;;9.13;;
63664;SDS011;49820;33.966;73.390;2023-03-12T03:02:49;15.40;;;9.53;;
63664;SDS011;49820;33.966;73.390;2023-03-12T03:05:18;15.27;;;9.48;;
63664;SDS011;49820;33.966;73.390;2023-03-12T03:07:49;17.60;;;9.23;;
63664;SDS011;49820;33.966;73.390;2023-03-12T03:10:18;14.00;;;9.73;;
63664;SDS011;49820;33.966;73.390;2023-03-12T03:12:47;17.13;;;9.68;;
63664;SDS011;49820;33.966;73.390;2023-03-12T03:15:17;15.75;;;9.48;;
63664;SDS011;49820;33.966;73.390;2023-03-12T03:17:46;12.30;;;8.73;;
63664;SDS011;49820;33.966;73.390;2023-03-12T03:20:16;14.93;;;9.18;;
63664;SDS011;49820;33.966;73.390;2023-03-12T03:22:45;14.50;;;9.20;;
63664;SDS011;49820;33.966;73.390;2023-03-12T03:25:14;13.68;;;9.18;;
63664;SDS011;49820;33.966;73.390;2023-03-12T03:27:45;11.77;;;8.57;;
63664;SDS011;49820;33.966;73.390;2023-03-12T03:30:14;14.20;;;9.05;;
63664;SDS011;49820;33.966;73.390;2023-03-12T03:32:47;14.20;;;9.43;;
63664;SDS011;49820;33.966;73.390;2023-03-12T03:35:17;13.70;;;9.93;;
63664;SDS011;49820;33.966;73.390;2023-03-12T03:37:46;17.73;;;10.02;;
63664;SDS011;49820;33.966;73.390;2023-03-12T03:40:16;17.85;;;10.20;;
63664;SDS011;49820;33.966;73.390;2023-03-12T03:42:45;16.75;;;10.38;;
63664;SDS011;49820;33.966;73.390;2023-03-12T03:45:14;16.77;;;11.52;;
63664;SDS011;49820;33.966;73.390;2023-03-12T03:47:44;14.88;;;10.95;;
63664;SDS011;49820;33.966;73.390;2023-03-12T03:50:14;15.43;;;11.07;;
63664;SDS011;49820;33.966;73.390;2023-03-12T03:52:43;20.50;;;10.95;;
63664;SDS011;49820;33.966;73.390;2023-03-12T03:55:12;17.65;;;10.32;;
63664;SDS011;49820;33.966;73.390;2023-03-12T03:57:41;16.92;;;10.27;;
63664;SDS011;49820;33.966;73.390;2023-03-12T04:00:10;18.40;;;10.57;;
63664;SDS011;49820;33.966;73.390;2023-03-12T04:02:40;16.30;;;10.68;;
63664;SDS011;49820;33.966;73.390;2023-03-12T04:05:11;15.18;;;10.20;;
63664;SDS011;49820;33.966;73.390;2023-03-12T04:07:40;15.90;;;10.07;;
63664;SDS011;49820;33.966;73.390;2023-03-12T04:10:10;17.10;;;9.90;;
63664;SDS011;49820;33.966;73.390;2023-03-12T04:12:40;12.02;;;8.70;;
63664;SDS011;49820;33.966;73.390;2023-03-12T04:15:11;14.98;;;9.80;;
63664;SDS011;49820;33.966;73.390;2023-03-12T04:17:41;17.83;;;10.73;;
63664;SDS011;49820;33.966;73.390;2023-03-12T04:20:11;21.25;;;11.00;;
63664;SDS011;49820;33.966;73.390;2023-03-12T04:22:41;13.82;;;9.73;;
63664;SDS011;49820;33.966;73.390;2023-03-12T04:25:11;14.60;;;9.53;;
63664;SDS011;49820;33.966;73.390;2023-03-12T04:27:41;16.63;;;9.50;;
63664;SDS011;49820;33.966;73.390;2023-03-12T04:30:12;17.00;;;10.48;;
63664;SDS011;49820;33.966;73.390;2023-03-12T04:32:43;15.90;;;10.57;;
63664;SDS011;49820;33.966;73.390;2023-03-12T04:35:13;18.20;;;10.63;;
63664;SDS011;49820;33.966;73.390;2023-03-12T04:37:42;18.23;;;10.52;;
63664;SDS011;49820;33.966;73.390;2023-03-12T04:40:12;15.40;;;9.75;;
63664;SDS011;49820;33.966;73.390;2023-03-12T04:42:42;17.08;;;10.63;;
63664;SDS011;49820;33.966;73.390;2023-03-12T04:45:11;16.23;;;9.90;;
63664;SDS011;49820;33.966;73.390;2023-03-12T04:47:43;19.10;;;11.50;;
63664;SDS011;49820;33.966;73.390;2023-03-12T04:50:14;15.77;;;10.60;;
63664;SDS011;49820;33.966;73.390;2023-03-12T04:52:43;15.30;;;9.50;;
63664;SDS011;49820;33.966;73.390;2023-03-12T04:55:12;13.88;;;9.32;;
63664;SDS011;49820;33.966;73.390;2023-03-12T04:57:40;14.05;;;9.93;;
63664;SDS011;49820;33.966;73.390;2023-03-12T05:00:10;20.58;;;14.20;;
63664;SDS011;49820;33.966;73.390;2023-03-12T05:02:42;24.15;;;15.13;;
63664;SDS011;49820;33.966;73.390;2023-03-12T05:05:12;17.52;;;11.18;;
63664;SDS011;49820;33.966;73.390;2023-03-12T05:07:41;18.83;;;10.38;;
63664;SDS011;49820;33.966;73.390;2023-03-12T05:10:10;17.85;;;11.45;;
63664;SDS011;49820;33.966;73.390;2023-03-12T05:12:40;12.35;;;9.13;;
63664;SDS011;49820;33.966;73.390;2023-03-12T05:15:09;12.73;;;8.73;;
63664;SDS011;49820;33.966;73.390;2023-03-12T05:17:39;14.80;;;9.38;;
63664;SDS011;49820;33.966;73.390;2023-03-12T05:20:08;15.73;;;10.35;;
63664;SDS011;49820;33.966;73.390;2023-03-12T05:22:38;16.30;;;9.32;;
63664;SDS011;49820;33.966;73.390;2023-03-12T05:25:08;15.80;;;9.15;;
63664;SDS011;49820;33.966;73.390;2023-03-12T05:27:37;14.90;;;9.35;;
63664;SDS011;49820;33.966;73.390;2023-03-12T05:30:07;12.98;;;9.45;;
63664;SDS011;49820;33.966;73.390;2023-03-12T05:32:37;14.85;;;9.60;;
63664;SDS011;49820;33.966;73.390;2023-03-12T05:35:06;13.25;;;9.43;;
63664;SDS011;49820;33.966;73.390;2023-03-12T05:37:38;16.17;;;9.30;;
63664;SDS011;49820;33.966;73.390;2023-03-12T05:40:11;14.57;;;9.15;;
63664;SDS011;49820;33.966;73.390;2023-03-12T05:42:41;14.13;;;9.00;;
63664;SDS011;49820;33.966;73.390;2023-03-12T05:45:09;16.87;;;9.37;;
63664;SDS011;49820;33.966;73.390;2023-03-12T05:47:43;15.30;;;9.80;;
63664;SDS011;49820;33.966;73.390;2023-03-12T05:50:12;14.25;;;8.70;;
63664;SDS011;49820;33.966;73.390;2023-03-12T05:52:43;13.57;;;9.20;;
63664;SDS011;49820;33.966;73.390;2023-03-12T05:55:13;14.10;;;9.13;;
63664;SDS011;49820;33.966;73.390;2023-03-12T05:57:42;15.90;;;9.50;;
63664;SDS011;49820;33.966;73.390;2023-03-12T06:00:12;14.30;;;9.10;;
63664;SDS011;49820;33.966;73.390;2023-03-12T06:02:50;15.27;;;8.88;;
63664;SDS011;49820;33.966;73.390;2023-03-12T06:05:19;13.60;;;8.95;;
63664;SDS011;49820;33.966;73.390;2023-03-12T06:07:49;14.35;;;9.43;;
63664;SDS011;49820;33.966;73.390;2023-03-12T06:10:18;14.10;;;9.98;;
63664;SDS011;49820;33.966;73.390;2023-03-12T06:12:48;15.32;;;9.85;;
63664;SDS011;49820;33.966;73.390;2023-03-12T06:15:17;14.93;;;9.52;;
63664;SDS011;49820;33.966;73.390;2023-03-12T06:17:46;14.98;;;8.85;;
63664;SDS011;49820;33.966;73.390;2023-03-12T06:20:15;14.02;;;9.73;;
63664;SDS011;49820;33.966;73.390;2023-03-12T06:22:45;15.02;;;9.27;;
63664;SDS011;49820;33.966;73.390;2023-03-12T06:25:14;14.70;;;9.73;;
63664;SDS011;49820;33.966;73.390;2023-03-12T06:27:44;13.95;;;9.45;;
63664;SDS011;49820;33.966;73.390;2023-03-12T06:30:13;12.88;;;9.45;;
63664;SDS011;49820;33.966;73.390;2023-03-12T06:32:42;17.02;;;9.25;;
63664;SDS011;49820;33.966;73.390;2023-03-12T06:35:11;14.52;;;9.25;;
63664;SDS011;49820;33.966;73.390;2023-03-12T06:37:41;17.02;;;9.75;;
63664;SDS011;49820;33.966;73.390;2023-03-12T06:40:10;15.15;;;9.23;;
63664;SDS011;49820;33.966;73.390;2023-03-12T06:42:40;16.43;;;9.33;;
63664;SDS011;49820;33.966;73.390;2023-03-12T06:45:09;13.80;;;9.32;;
63664;SDS011;49820;33.966;73.390;2023-03-12T06:47:38;18.60;;;9.25;;
63664;SDS011;49820;33.966;73.390;2023-03-12T06:50:07;12.95;;;9.05;;
63664;SDS011;49820;33.966;73.390;2023-03-12T06:52:37;15.15;;;9.18;;
63664;SDS011;49820;33.966;73.390;2023-03-12T06:55:07;12.32;;;9.15;;
63664;SDS011;49820;33.966;73.390;2023-03-12T06:57:36;15.70;;;9.18;;
63664;SDS011;49820;33.966;73.390;2023-03-12T07:00:05;14.57;;;8.85;;
63664;SDS011;49820;33.966;73.390;2023-03-12T07:02:35;15.38;;;9.32;;
63664;SDS011;49820;33.966;73.390;2023-03-12T07:05:04;17.02;;;9.15;;
63664;SDS011;49820;33.966;73.390;2023-03-12T07:07:33;16.50;;;10.00;;
63664;SDS011;49820;33.966;73.390;2023-03-12T07:10:02;14.73;;;9.50;;
63664;SDS011;49820;33.966;73.390;2023-03-12T07:12:33;14.85;;;9.07;;
63664;SDS011;49820;33.966;73.390;2023-03-12T07:15:03;11.30;;;8.93;;
63664;SDS011;49820;33.966;73.390;2023-03-12T07:17:34;13.55;;;9.57;;
63664;SDS011;49820;33.966;73.390;2023-03-12T07:20:03;14.73;;;10.73;;
63664;SDS011;49820;33.966;73.390;2023-03-12T07:22:34;16.30;;;11.15;;
63664;SDS011;49820;33.966;73.390;2023-03-12T07:25:03;16.97;;;12.37;;
63664;SDS011;49820;33.966;73.390;2023-03-12T07:27:33;15.07;;;11.10;;
63664;SDS011;49820;33.966;73.390;2023-03-12T07:30:02;15.37;;;10.23;;
63664;SDS011;49820;33.966;73.390;2023-03-12T07:32:32;14.75;;;9.98;;
63664;SDS011;49820;33.966;73.390;2023-03-12T07:35:04;14.07;;;10.30;;
63664;SDS011;49820;33.966;73.390;2023-03-12T07:37:33;13.65;;;9.70;;
63664;SDS011;49820;33.966;73.390;2023-03-12T07:40:02;14.05;;;9.60;;
63664;SDS011;49820;33.966;73.390;2023-03-12T07:42:34;14.95;;;9.88;;
63664;SDS011;49820;33.966;73.390;2023-03-12T07:45:04;19.52;;;10.13;;
63664;SDS011;49820;33.966;73.390;2023-03-12T07:47:35;13.80;;;9.90;;
63664;SDS011;49820;33.966;73.390;2023-03-12T07:50:05;13.70;;;9.75;;
63664;SDS011;49820;33.966;73.390;2023-03-12T07:52:34;16.13;;;10.20;;
63664;SDS011;49820;33.966;73.390;2023-03-12T07:55:04;17.52;;;10.50;;
63664;SDS011;49820;33.966;73.390;2023-03-12T07:57:34;16.52;;;10.52;;
63664;SDS011;49820;33.966;73.390;2023-03-12T08:00:04;17.08;;;10.57;;
63664;SDS011;49820;33.966;73.390;2023-03-12T08:02:38;15.30;;;10.50;;
63664;SDS011;49820;33.966;73.390;2023-03-12T08:05:09;15.55;;;9.95;;
63664;SDS011;49820;33.966;73.390;2023-03-12T08:07:38;14.35;;;10.07;;
63664;SDS011;49820;33.966;73.390;2023-03-12T08:10:08;15.17;;;10.10;;
63664;SDS011;49820;33.966;73.390;2023-03-12T08:12:38;16.30;;;10.30;;
63664;SDS011;49820;33.966;73.390;2023-03-12T08:15:07;17.17;;;11.10;;
63664;SDS011;49820;33.966;73.390;2023-03-12T08:17:39;15.10;;;10.95;;
63664;SDS011;49820;33.966;73.390;2023-03-12T08:20:10;14.02;;;10.10;;
63664;SDS011;49820;33.966;73.390;2023-03-12T08:22:40;15.50;;;10.27;;
63664;SDS011;49820;33.966;73.390;2023-03-12T08:25:10;15.50;;;9.93;;
63664;SDS011;49820;33.966;73.390;2023-03-12T08:27:39;15.35;;;9.73;;
63664;SDS011;49820;33.966;73.390;2023-03-12T08:30:08;15.88;;;9.73;;
63664;SDS011;49820;33.966;73.390;2023-03-12T08:32:38;15.30;;;8.98;;
63664;SDS011;49820;33.966;73.390;2023-03-12T08:35:07;14.98;;;9.15;;
63664;SDS011;49820;33.966;73.390;2023-03-12T08:37:37;17.20;;;9.87;;
63664;SDS011;49820;33.966;73.390;2023-03-12T08:40:07;12.48;;;8.55;;
63664;SDS011;49820;33.966;73.390;2023-03-12T08:42:43;13.47;;;9.03;;
63664;SDS011;49820;33.966;73.390;2023-03-12T08:45:12;12.45;;;8.70;;
63664;SDS011;49820;33.966;73.390;2023-03-12T08:47:43;16.48;;;9.23;;
63664;SDS011;49820;33.966;73.390;2023-03-12T08:50:12;13.20;;;8.90;;
63664;SDS011;49820;33.966;73.390;2023-03-12T08:52:44;15.50;;;8.83;;
63664;SDS011;49820;33.966;73.390;2023-03-12T08:55:13;13.00;;;8.65;;
63664;SDS011;49820;33.966;73.390;2023-03-12T08:57:42;13.60;;;7.88;;
63664;SDS011;49820;33.966;73.390;2023-03-12T09:00:11;11.25;;;7.90;;
63664;SDS011;49820;33.966;73.390;2023-03-12T09:02:44;12.50;;;7.60;;
63664;SDS011;49820;33.966;73.390;2023-03-12T09:05:13;11.55;;;7.75;;
63664;SDS011;49820;33.966;73.390;2023-03-12T09:07:42;14.25;;;8.32;;
63664;SDS011;49820;33.966;73.390;2023-03-12T09:10:12;12.15;;;8.00;;
63664;SDS011;49820;33.966;73.390;2023-03-12T09:12:41;12.13;;;8.10;;
63664;SDS011;49820;33.966;73.390;2023-03-12T09:15:11;12.35;;;7.70;;
63664;SDS011;49820;33.966;73.390;2023-03-12T09:17:41;8.82;;;7.03;;
63664;SDS011;49820;33.966;73.390;2023-03-12T09:20:11;11.18;;;7.15;;
63664;SDS011;49820;33.966;73.390;2023-03-12T09:22:43;9.55;;;6.63;;
63664;SDS011;49820;33.966;73.390;2023-03-12T09:25:13;9.63;;;6.68;;
63664;SDS011;49820;33.966;73.390;2023-03-12T09:27:44;11.07;;;6.70;;
63664;SDS011;49820;33.966;73.390;2023-03-12T09:30:18;9.52;;;6.60;;
63664;SDS011;49820;33.966;73.390;2023-03-12T09:32:48;9.90;;;7.20;;
63664;SDS011;49820;33.966;73.390;2023-03-12T09:35:17;11.95;;;7.22;;
63664;SDS011;49820;33.966;73.390;2023-03-12T09:37:48;11.50;;;6.43;;
63664;SDS011;49820;33.966;73.390;2023-03-12T09:40:19;13.50;;;8.77;;
63664;SDS011;49820;33.966;73.390;2023-03-12T09:45:26;12.13;;;7.63;;
63664;SDS011;49820;33.966;73.390;2023-03-12T09:47:59;12.93;;;7.72;;
63664;SDS011;49820;33.966;73.390;2023-03-12T09:50:32;13.30;;;7.72;;
63664;SDS011;49820;33.966;73.390;2023-03-12T09:53:27;13.63;;;8.85;;
63664;SDS011;49820;33.966;73.390;2023-03-12T09:56:02;15.57;;;8.50;;
63664;SDS011;49820;33.966;73.390;2023-03-12T09:58:36;12.43;;;8.93;;
63664;SDS011;49820;33.966;73.390;2023-03-12T10:06:54;15.75;;;9.80;;
63664;SDS011;49820;33.966;73.390;2023-03-12T10:12:33;15.43;;;10.10;;
63664;SDS011;49820;33.966;73.390;2023-03-12T10:27:40;19.88;;;13.40;;
63664;SDS011;49820;33.966;73.390;2023-03-12T10:30:19;20.08;;;14.15;;
63664;SDS011;49820;33.966;73.390;2023-03-12T10:32:55;21.30;;;14.60;;
63664;SDS011;49820;33.966;73.390;2023-03-12T10:35:28;21.10;;;14.00;;
63664;SDS011;49820;33.966;73.390;2023-03-12T10:37:59;23.90;;;14.30;;
63664;SDS011;49820;33.966;73.390;2023-03-12T10:40:32;24.42;;;15.68;;
63664;SDS011;49820;33.966;73.390;2023-03-12T10:43:10;27.45;;;15.68;;
63664;SDS011;49820;33.966;73.390;2023-03-12T10:48:49;26.52;;;17.60;;
63664;SDS011;49820;33.966;73.390;2023-03-12T10:51:18;26.73;;;17.67;;
63664;SDS011;49820;33.966;73.390;2023-03-12T10:53:49;29.88;;;20.05;;
63664;SDS011;49820;33.966;73.390;2023-03-12T10:56:19;32.15;;;20.15;;
63664;SDS011;49820;33.966;73.390;2023-03-12T10:58:52;29.45;;;18.95;;
63664;SDS011;49820;33.966;73.390;2023-03-12T11:01:25;24.73;;;17.27;;
63664;SDS011;49820;33.966;73.390;2023-03-12T11:07:06;30.35;;;19.08;;
63664;SDS011;49820;33.966;73.390;2023-03-12T11:10:17;27.52;;;18.48;;
63664;SDS011;49820;33.966;73.390;2023-03-12T11:12:53;26.02;;;17.42;;
63664;SDS011;49820;33.966;73.390;2023-03-12T11:15:29;25.38;;;17.75;;
63664;SDS011;49820;33.966;73.390;2023-03-12T11:18:20;26.13;;;17.70;;
63664;SDS011;49820;33.966;73.390;2023-03-12T11:23:45;28.30;;;17.53;;
63664;SDS011;49820;33.966;73.390;2023-03-12T11:31:59;14.05;;;8.30;;
63664;SDS011;49820;33.966;73.390;2023-03-12T11:34:34;13.93;;;7.40;;
63664;SDS011;49820;33.966;73.390;2023-03-12T11:39:50;12.27;;;6.97;;
63664;SDS011;49820;33.966;73.390;2023-03-12T11:56:29;8.75;;;4.20;;
63664;SDS011;49820;33.966;73.390;2023-03-12T12:10:30;7.47;;;3.90;;
63664;SDS011;49820;33.966;73.390;2023-03-12T12:13:46;8.43;;;4.10;;
63664;SDS011;49820;33.966;73.390;2023-03-12T12:21:58;5.90;;;3.58;;
63664;SDS011;49820;33.966;73.390;2023-03-12T12:28:07;6.70;;;3.50;;
63664;SDS011;49820;33.966;73.390;2023-03-12T12:33:36;7.47;;;4.75;;
63664;SDS011;49820;33.966;73.390;2023-03-12T12:36:17;13.45;;;4.95;;
63664;SDS011;49820;33.966;73.390;2023-03-12T12:38:49;10.82;;;5.18;;
63664;SDS011;49820;33.966;73.390;2023-03-12T12:41:24;13.90;;;7.53;;
63664;SDS011;49820;33.966;73.390;2023-03-12T12:44:00;16.83;;;9.88;;
63664;SDS011;49820;33.966;73.390;2023-03-12T12:46:35;14.73;;;8.98;;
63664;SDS011;49820;33.966;73.390;2023-03-12T12:49:11;16.42;;;9.48;;
63664;SDS011;49820;33.966;73.390;2023-03-12T12:51:48;17.45;;;9.93;;
63664;SDS011;49820;33.966;73.390;2023-03-12T12:54:37;15.07;;;9.10;;
63664;SDS011;49820;33.966;73.390;2023-03-12T12:57:19;15.02;;;8.48;;
63664;SDS011;49820;33.966;73.390;2023-03-12T13:02:45;14.52;;;7.82;;
63664;SDS011;49820;33.966;73.390;2023-03-12T13:05:25;14.90;;;8.00;;
63664;SDS011;49820;33.966;73.390;2023-03-12T13:08:06;15.43;;;8.73;;
63664;SDS011;49820;33.966;73.390;2023-03-12T13:10:40;9.68;;;4.75;;
63664;SDS011;49820;33.966;73.390;2023-03-12T13:13:28;10.95;;;5.00;;
63664;SDS011;49820;33.966;73.390;2023-03-12T13:21:52;12.25;;;4.50;;
63664;SDS011;49820;33.966;73.390;2023-03-12T13:24:42;7.75;;;4.35;;
63664;SDS011;49820;33.966;73.390;2023-03-12T13:29:49;7.75;;;5.35;;
63664;SDS011;49820;33.966;73.390;2023-03-12T13:43:04;12.18;;;5.80;;
63664;SDS011;49820;33.966;73.390;2023-03-12T13:48:33;8.98;;;4.93;;
63664;SDS011;49820;33.966;73.390;2023-03-12T13:51:10;5.20;;;3.70;;
63664;SDS011;49820;33.966;73.390;2023-03-12T13:53:53;6.95;;;3.63;;
63664;SDS011;49820;33.966;73.390;2023-03-12T13:56:29;6.93;;;4.20;;
63664;SDS011;49820;33.966;73.390;2023-03-12T13:59:02;8.43;;;4.60;;
63664;SDS011;49820;33.966;73.390;2023-03-12T14:01:35;8.27;;;4.88;;
63664;SDS011;49820;33.966;73.390;2023-03-12T14:04:13;10.65;;;4.22;;
63664;SDS011;49820;33.966;73.390;2023-03-12T14:09:26;8.65;;;4.38;;
63664;SDS011;49820;33.966;73.390;2023-03-12T14:12:15;7.57;;;4.72;;
63664;SDS011;49820;33.966;73.390;2023-03-12T14:14:51;9.80;;;6.43;;
63664;SDS011;49820;33.966;73.390;2023-03-12T14:17:26;10.05;;;5.35;;
63664;SDS011;49820;33.966;73.390;2023-03-12T14:20:17;7.20;;;4.78;;
63664;SDS011;49820;33.966;73.390;2023-03-12T14:22:53;15.57;;;5.75;;
63664;SDS011;49820;33.966;73.390;2023-03-12T14:25:36;7.47;;;4.85;;
63664;SDS011;49820;33.966;73.390;2023-03-12T14:28:10;5.85;;;4.00;;
63664;SDS011;49820;33.966;73.390;2023-03-12T14:30:58;8.38;;;4.43;;
63664;SDS011;49820;33.966;73.390;2023-03-12T14:33:44;7.45;;;5.32;;
63664;SDS011;49820;33.966;73.390;2023-03-12T14:36:15;10.15;;;4.03;;
63664;SDS011;49820;33.966;73.390;2023-03-12T14:38:47;6.47;;;3.63;;
63664;SDS011;49820;33.966;73.390;2023-03-12T14:41:24;5.60;;;3.78;;
63664;SDS011;49820;33.966;73.390;2023-03-12T14:44:22;6.88;;;3.58;;
63664;SDS011;49820;33.966;73.390;2023-03-12T14:46:55;5.53;;;3.80;;
63664;SDS011;49820;33.966;73.390;2023-03-12T14:49:29;7.05;;;3.83;;
63664;SDS011;49820;33.966;73.390;2023-03-12T14:51:59;5.35;;;3.55;;
63664;SDS011;49820;33.966;73.390;2023-03-12T14:54:28;9.23;;;4.15;;
63664;SDS011;49820;33.966;73.390;2023-03-12T14:56:57;11.27;;;6.63;;
63664;SDS011;49820;33.966;73.390;2023-03-12T14:59:28;9.63;;;5.93;;
63664;SDS011;49820;33.966;73.390;2023-03-12T15:02:20;11.30;;;5.93;;
63664;SDS011;49820;33.966;73.390;2023-03-12T15:04:49;8.23;;;5.20;;
63664;SDS011;49820;33.966;73.390;2023-03-12T15:07:32;7.38;;;4.70;;
63664;SDS011;49820;33.966;73.390;2023-03-12T15:10:14;7.15;;;4.95;;
63664;SDS011;49820;33.966;73.390;2023-03-12T15:12:51;9.73;;;5.30;;
63664;SDS011;49820;33.966;73.390;2023-03-12T15:15:39;9.93;;;5.40;;
63664;SDS011;49820;33.966;73.390;2023-03-12T15:18:13;11.10;;;6.85;;
63664;SDS011;49820;33.966;73.390;2023-03-12T15:20:43;11.43;;;6.73;;
63664;SDS011;49820;33.966;73.390;2023-03-12T15:23:16;13.77;;;7.70;;
63664;SDS011;49820;33.966;73.390;2023-03-12T15:25:47;11.80;;;7.25;;
63664;SDS011;49820;33.966;73.390;2023-03-12T15:28:35;12.40;;;6.50;;
63664;SDS011;49820;33.966;73.390;2023-03-12T15:31:07;12.13;;;7.03;;
63664;SDS011;49820;33.966;73.390;2023-03-12T15:33:42;14.23;;;6.83;;
63664;SDS011;49820;33.966;73.390;2023-03-12T15:36:19;10.83;;;6.17;;
63664;SDS011;49820;33.966;73.390;2023-03-12T15:38:58;12.57;;;7.72;;
63664;SDS011;49820;33.966;73.390;2023-03-12T15:41:42;11.93;;;5.93;;
63664;SDS011;49820;33.966;73.390;2023-03-12T15:44:30;12.47;;;6.67;;
63664;SDS011;49820;33.966;73.390;2023-03-12T15:47:14;13.70;;;5.95;;
63664;SDS011;49820;33.966;73.390;2023-03-12T15:49:49;10.57;;;4.82;;
63664;SDS011;49820;33.966;73.390;2023-03-12T15:57:47;8.98;;;3.90;;
63664;SDS011;49820;33.966;73.390;2023-03-12T16:00:40;6.45;;;4.05;;
63664;SDS011;49820;33.966;73.390;2023-03-12T16:03:14;5.97;;;3.50;;
63664;SDS011;49820;33.966;73.390;2023-03-12T16:05:45;5.60;;;3.57;;
63664;SDS011;49820;33.966;73.390;2023-03-12T16:08:25;6.10;;;3.08;;
63664;SDS011;49820;33.966;73.390;2023-03-12T16:11:30;5.63;;;3.40;;
63664;SDS011;49820;33.966;73.390;2023-03-12T16:16:46;6.03;;;3.70;;
63664;SDS011;49820;33.966;73.390;2023-03-12T16:19:17;7.25;;;3.50;;
63664;SDS011;49820;33.966;73.390;2023-03-12T16:21:48;4.60;;;3.42;;
63664;SDS011;49820;33.966;73.390;2023-03-12T16:24:18;7.00;;;3.67;;
63664;SDS011;49820;33.966;73.390;2023-03-12T16:26:48;5.78;;;3.28;;
63664;SDS011;49820;33.966;73.390;2023-03-12T16:29:30;6.70;;;3.83;;
63664;SDS011;49820;33.966;73.390;2023-03-12T16:32:01;6.07;;;4.00;;
63664;SDS011;49820;33.966;73.390;2023-03-12T16:34:41;9.30;;;4.07;;
63664;SDS011;49820;33.966;73.390;2023-03-12T16:37:13;5.30;;;4.00;;
63664;SDS011;49820;33.966;73.390;2023-03-12T16:39:42;6.22;;;4.05;;
63664;SDS011;49820;33.966;73.390;2023-03-12T16:42:16;5.03;;;3.50;;
63664;SDS011;49820;33.966;73.390;2023-03-12T16:44:46;25.73;;;5.20;;
63664;SDS011;49820;33.966;73.390;2023-03-12T16:47:16;7.07;;;3.47;;
63664;SDS011;49820;33.966;73.390;2023-03-12T16:49:45;5.95;;;3.60;;
63664;SDS011;49820;33.966;73.390;2023-03-12T16:52:15;5.70;;;3.40;;
63664;SDS011;49820;33.966;73.390;2023-03-12T16:54:50;6.10;;;3.60;;
63664;SDS011;49820;33.966;73.390;2023-03-12T16:57:23;5.97;;;4.10;;
63664;SDS011;49820;33.966;73.390;2023-03-12T16:59:57;7.35;;;3.95;;
63664;SDS011;49820;33.966;73.390;2023-03-12T17:02:27;7.50;;;3.60;;
63664;SDS011;49820;33.966;73.390;2023-03-12T17:04:56;6.70;;;3.80;;
63664;SDS011;49820;33.966;73.390;2023-03-12T17:07:25;7.22;;;4.10;;
63664;SDS011;49820;33.966;73.390;2023-03-12T17:09:54;5.43;;;3.55;;
63664;SDS011;49820;33.966;73.390;2023-03-12T17:12:30;6.32;;;4.05;;
63664;SDS011;49820;33.966;73.390;2023-03-12T17:15:22;5.13;;;3.80;;
63664;SDS011;49820;33.966;73.390;2023-03-12T17:17:57;6.00;;;3.70;;
63664;SDS011;49820;33.966;73.390;2023-03-12T17:20:32;6.72;;;4.20;;
63664;SDS011;49820;33.966;73.390;2023-03-12T17:23:10;6.90;;;4.93;;
63664;SDS011;49820;33.966;73.390;2023-03-12T17:25:39;5.93;;;4.45;;
63664;SDS011;49820;33.966;73.390;2023-03-12T17:28:10;6.57;;;4.55;;
63664;SDS011;49820;33.966;73.390;2023-03-12T17:30:41;5.97;;;3.53;;
63664;SDS011;49820;33.966;73.390;2023-03-12T17:33:11;5.00;;;3.20;;
63664;SDS011;49820;33.966;73.390;2023-03-12T17:35:43;6.28;;;3.35;;
63664;SDS011;49820;33.966;73.390;2023-03-12T17:38:13;6.10;;;3.42;;
63664;SDS011;49820;33.966;73.390;2023-03-12T17:40:42;4.15;;;2.95;;
63664;SDS011;49820;33.966;73.390;2023-03-12T17:43:11;6.30;;;3.30;;
63664;SDS011;49820;33.966;73.390;2023-03-12T17:45:40;3.67;;;3.00;;
63664;SDS011;49820;33.966;73.390;2023-03-12T17:48:10;6.60;;;4.05;;
63664;SDS011;49820;33.966;73.390;2023-03-12T17:50:39;6.68;;;4.70;;
63664;SDS011;49820;33.966;73.390;2023-03-12T17:53:10;7.63;;;5.10;;
63664;SDS011;49820;33.966;73.390;2023-03-12T17:55:41;9.40;;;5.78;;
63664;SDS011;49820;33.966;73.390;2023-03-12T17:58:10;10.07;;;5.55;;
63664;SDS011;49820;33.966;73.390;2023-03-12T18:00:39;8.55;;;5.15;;
63664;SDS011;49820;33.966;73.390;2023-03-12T18:03:09;8.48;;;5.10;;
63664;SDS011;49820;33.966;73.390;2023-03-12T18:05:38;7.47;;;4.85;;
63664;SDS011;49820;33.966;73.390;2023-03-12T18:08:10;8.13;;;4.60;;
63664;SDS011;49820;33.966;73.390;2023-03-12T18:10:39;6.83;;;4.80;;
63664;SDS011;49820;33.966;73.390;2023-03-12T18:13:10;7.30;;;4.68;;
63664;SDS011;49820;33.966;73.390;2023-03-12T18:15:39;10.05;;;5.53;;
63664;SDS011;49820;33.966;73.390;2023-03-12T18:18:08;9.57;;;5.28;;
63664;SDS011;49820;33.966;73.390;2023-03-12T18:20:37;8.68;;;5.20;;
63664;SDS011;49820;33.966;73.390;2023-03-12T18:23:06;7.80;;;5.20;;
63664;SDS011;49820;33.966;73.390;2023-03-12T18:25:38;10.13;;;5.90;;
63664;SDS011;49820;33.966;73.390;2023-03-12T18:28:08;11.80;;;5.80;;
63664;SDS011;49820;33.966;73.390;2023-03-12T18:30:36;6.05;;;3.83;;
63664;SDS011;49820;33.966;73.390;2023-03-12T18:33:10;3.65;;;3.03;;
63664;SDS011;49820;33.966;73.390;2023-03-12T18:35:41;5.40;;;3.88;;
63664;SDS011;49820;33.966;73.390;2023-03-12T18:38:10;5.78;;;3.13;;
63664;SDS011;49820;33.966;73.390;2023-03-12T18:40:39;6.40;;;3.60;;
63664;SDS011;49820;33.966;73.390;2023-03-12T18:43:09;5.68;;;3.42;;
63664;SDS011;49820;33.966;73.390;2023-03-12T18:45:42;5.88;;;3.75;;
63664;SDS011;49820;33.966;73.390;2023-03-12T18:48:11;8.20;;;3.95;;
63664;SDS011;49820;33.966;73.390;2023-03-12T18:50:40;6.70;;;4.10;;
63664;SDS011;49820;33.966;73.390;2023-03-12T18:53:09;6.95;;;3.50;;
63664;SDS011;49820;33.966;73.390;2023-03-12T18:55:38;6.20;;;3.45;;
63664;SDS011;49820;33.966;73.390;2023-03-12T18:58:07;5.85;;;3.13;;
63664;SDS011;49820;33.966;73.390;2023-03-12T19:00:36;7.50;;;3.17;;
63664;SDS011;49820;33.966;73.390;2023-03-12T19:03:10;6.00;;;3.38;;
63664;SDS011;49820;33.966;73.390;2023-03-12T19:05:39;6.85;;;3.60;;
63664;SDS011;49820;33.966;73.390;2023-03-12T19:08:08;6.28;;;4.07;;
63664;SDS011;49820;33.966;73.390;2023-03-12T19:10:41;5.22;;;3.22;;
63664;SDS011;49820;33.966;73.390;2023-03-12T19:13:11;5.28;;;3.58;;
63664;SDS011;49820;33.966;73.390;2023-03-12T19:15:40;6.00;;;3.67;;
63664;SDS011;49820;33.966;73.390;2023-03-12T19:18:09;6.35;;;3.53;;
63664;SDS011;49820;33.966;73.390;2023-03-12T19:20:38;7.00;;;3.67;;
63664;SDS011;49820;33.966;73.390;2023-03-12T19:23:08;6.53;;;3.75;;
63664;SDS011;49820;33.966;73.390;2023-03-12T19:25:37;6.13;;;3.83;;
63664;SDS011;49820;33.966;73.390;2023-03-12T19:28:06;6.53;;;3.40;;